Aviation Digital Data Service (ADDS)

Output produced by METARs form (2340 UTC 20 January 2019)
found at http://www.aviationweather.gov/metar/data/
 
METAR text: VOCI 202330Z 09003KT 3500 BR FEW012 BKN080 18/16 Q1012 NOSIG
Conditions at: VOCI (COCHIN INTL , IN) observed 2330 UTC 20 January 2019
Temperature: 18.0°C (64°F)
Dewpoint: 16.0°C (61°F) [RH = 88%]
Pressure (altimeter): 29.88 inches Hg (1012.0 mb)
Winds: from the E (90 degrees) at 3 MPH (3 knots; 1.5 m/s)
Visibility: 2.17 miles (3.49 km)
Ceiling: 8000 feet AGL
Clouds: few clouds at 1200 feet AGL
broken clouds at 8000 feet AGL
Weather: BR  (mist)

METAR text: VOCI 202300Z 08003KT 3500 BR FEW012 BKN080 19/17 Q1012 NOSIG
Conditions at: VOCI (COCHIN INTL , IN) observed 2300 UTC 20 January 2019
Temperature: 19.0°C (66°F)
Dewpoint: 17.0°C (63°F) [RH = 88%]
Pressure (altimeter): 29.88 inches Hg (1012.0 mb)
Winds: from the E (80 degrees) at 3 MPH (3 knots; 1.5 m/s)
Visibility: 2.17 miles (3.49 km)
Ceiling: 8000 feet AGL
Clouds: few clouds at 1200 feet AGL
broken clouds at 8000 feet AGL
Weather: BR  (mist)

METAR text: VOCI 202230Z 07004KT 3500 BR FEW012 BKN080 19/17 Q1012 NOSIG
Conditions at: VOCI (COCHIN INTL , IN) observed 2230 UTC 20 January 2019
Temperature: 19.0°C (66°F)
Dewpoint: 17.0°C (63°F) [RH = 88%]
Pressure (altimeter): 29.88 inches Hg (1012.0 mb)
Winds: from the ENE (70 degrees) at 5 MPH (4 knots; 2.1 m/s)
Visibility: 2.17 miles (3.49 km)
Ceiling: 8000 feet AGL
Clouds: few clouds at 1200 feet AGL
broken clouds at 8000 feet AGL
Weather: BR  (mist)

METAR text: VOCI 202200Z VRB03KT 3500 BR FEW012 BKN080 19/17 Q1012 NOSIG
Conditions at: VOCI (COCHIN INTL , IN) observed 2200 UTC 20 January 2019
Temperature: 19.0°C (66°F)
Dewpoint: 17.0°C (63°F) [RH = 88%]
Pressure (altimeter): 29.88 inches Hg (1012.0 mb)
Winds: variable direction winds at 3 MPH (3 knots; 1.5 m/s)
Visibility: 2.17 miles (3.49 km)
Ceiling: 8000 feet AGL
Clouds: few clouds at 1200 feet AGL
broken clouds at 8000 feet AGL
Weather: BR  (mist)

METAR text: VOCI 202130Z VRB02KT 3500 BR FEW012 BKN080 19/17 Q1012 NOSIG
Conditions at: VOCI (COCHIN INTL , IN) observed 2130 UTC 20 January 2019
Temperature: 19.0°C (66°F)
Dewpoint: 17.0°C (63°F) [RH = 88%]
Pressure (altimeter): 29.88 inches Hg (1012.0 mb)
Winds: variable direction winds at 2 MPH (2 knots; 1.0 m/s)
Visibility: 2.17 miles (3.49 km)
Ceiling: 8000 feet AGL
Clouds: few clouds at 1200 feet AGL
broken clouds at 8000 feet AGL
Weather: BR  (mist)

METAR text: VOCI 202100Z 34002KT 3500 BR FEW012 BKN080 20/18 Q1012 NOSIG
Conditions at: VOCI (COCHIN INTL , IN) observed 2100 UTC 20 January 2019
Temperature: 20.0°C (68°F)
Dewpoint: 18.0°C (64°F) [RH = 88%]
Pressure (altimeter): 29.88 inches Hg (1012.0 mb)
Winds: from the NNW (340 degrees) at 2 MPH (2 knots; 1.0 m/s)
Visibility: 2.17 miles (3.49 km)
Ceiling: 8000 feet AGL
Clouds: few clouds at 1200 feet AGL
broken clouds at 8000 feet AGL
Weather: BR  (mist)

METAR text: VOCI 202030Z 24002KT 3500 BR FEW012 BKN080 20/17 Q1012 NOSIG
Conditions at: VOCI (COCHIN INTL , IN) observed 2030 UTC 20 January 2019
Temperature: 20.0°C (68°F)
Dewpoint: 17.0°C (63°F) [RH = 83%]
Pressure (altimeter): 29.88 inches Hg (1012.0 mb)
Winds: from the WSW (240 degrees) at 2 MPH (2 knots; 1.0 m/s)
Visibility: 2.17 miles (3.49 km)
Ceiling: 8000 feet AGL
Clouds: few clouds at 1200 feet AGL
broken clouds at 8000 feet AGL
Weather: BR  (mist)

METAR text: VOCI 202000Z 09002KT 4000 BR FEW012 BKN080 21/18 Q1013 BECMG 3500 BR
Conditions at: VOCI (COCHIN INTL , IN) observed 2000 UTC 20 January 2019
Temperature: 21.0°C (70°F)
Dewpoint: 18.0°C (64°F) [RH = 83%]
Pressure (altimeter): 29.91 inches Hg (1013.0 mb)
Winds: from the E (90 degrees) at 2 MPH (2 knots; 1.0 m/s)
Visibility: 2.49 miles (4.01 km)
Ceiling: 8000 feet AGL
Clouds: few clouds at 1200 feet AGL
broken clouds at 8000 feet AGL
Weather: BR  (mist)

METAR text: VOCI 201930Z 07002KT 4000 BR FEW015 BKN080 21/17 Q1013 NOSIG
Conditions at: VOCI (COCHIN INTL , IN) observed 1930 UTC 20 January 2019
Temperature: 21.0°C (70°F)
Dewpoint: 17.0°C (63°F) [RH = 78%]
Pressure (altimeter): 29.91 inches Hg (1013.0 mb)
Winds: from the ENE (70 degrees) at 2 MPH (2 knots; 1.0 m/s)
Visibility: 2.49 miles (4.01 km)
Ceiling: 8000 feet AGL
Clouds: few clouds at 1500 feet AGL
broken clouds at 8000 feet AGL
Weather: BR  (mist)

METAR text: VOCI 201900Z 07003KT 4000 BR FEW015 BKN080 21/18 Q1013 NOSIG
Conditions at: VOCI (COCHIN INTL , IN) observed 1900 UTC 20 January 2019
Temperature: 21.0°C (70°F)
Dewpoint: 18.0°C (64°F) [RH = 83%]
Pressure (altimeter): 29.91 inches Hg (1013.0 mb)
Winds: from the ENE (70 degrees) at 3 MPH (3 knots; 1.5 m/s)
Visibility: 2.49 miles (4.01 km)
Ceiling: 8000 feet AGL
Clouds: few clouds at 1500 feet AGL
broken clouds at 8000 feet AGL
Weather: BR  (mist)

METAR text: VOCI 201830Z 00000KT 4000 BR FEW015 BKN080 22/19 Q1013 NOSIG
Conditions at: VOCI (COCHIN INTL , IN) observed 1830 UTC 20 January 2019
Temperature: 22.0°C (72°F)
Dewpoint: 19.0°C (66°F) [RH = 83%]
Pressure (altimeter): 29.91 inches Hg (1013.0 mb)
Winds: calm
Visibility: 2.49 miles (4.01 km)
Ceiling: 8000 feet AGL
Clouds: few clouds at 1500 feet AGL
broken clouds at 8000 feet AGL
Weather: BR  (mist)

METAR text: VOCI 201800Z 14003KT 4000 BR FEW015 BKN080 22/20 Q1013 NOSIG
Conditions at: VOCI (COCHIN INTL , IN) observed 1800 UTC 20 January 2019
Temperature: 22.0°C (72°F)
Dewpoint: 20.0°C (68°F) [RH = 88%]
Pressure (altimeter): 29.91 inches Hg (1013.0 mb)
Winds: from the SE (140 degrees) at 3 MPH (3 knots; 1.5 m/s)
Visibility: 2.49 miles (4.01 km)
Ceiling: 8000 feet AGL
Clouds: few clouds at 1500 feet AGL
broken clouds at 8000 feet AGL
Weather: BR  (mist)

METAR text: VOCI 201730Z 04002KT 4000 HZ FEW015 BKN080 22/19 Q1013 NOSIG
Conditions at: VOCI (COCHIN INTL , IN) observed 1730 UTC 20 January 2019
Temperature: 22.0°C (72°F)
Dewpoint: 19.0°C (66°F) [RH = 83%]
Pressure (altimeter): 29.91 inches Hg (1013.0 mb)
Winds: from the NE (40 degrees) at 2 MPH (2 knots; 1.0 m/s)
Visibility: 2.49 miles (4.01 km)
Ceiling: 8000 feet AGL
Clouds: few clouds at 1500 feet AGL
broken clouds at 8000 feet AGL
Weather: HZ  (haze)

METAR text: VOCI 201700Z 00000KT 4000 HZ FEW015 BKN080 23/19 Q1013 NOSIG
Conditions at: VOCI (COCHIN INTL , IN) observed 1700 UTC 20 January 2019
Temperature: 23.0°C (73°F)
Dewpoint: 19.0°C (66°F) [RH = 78%]
Pressure (altimeter): 29.91 inches Hg (1013.0 mb)
Winds: calm
Visibility: 2.49 miles (4.01 km)
Ceiling: 8000 feet AGL
Clouds: few clouds at 1500 feet AGL
broken clouds at 8000 feet AGL
Weather: HZ  (haze)

METAR text: VOCI 201630Z 30002KT 4000 HZ FEW015 BKN080 23/19 Q1013 NOSIG
Conditions at: VOCI (COCHIN INTL , IN) observed 1630 UTC 20 January 2019
Temperature: 23.0°C (73°F)
Dewpoint: 19.0°C (66°F) [RH = 78%]
Pressure (altimeter): 29.91 inches Hg (1013.0 mb)
Winds: from the WNW (300 degrees) at 2 MPH (2 knots; 1.0 m/s)
Visibility: 2.49 miles (4.01 km)
Ceiling: 8000 feet AGL
Clouds: few clouds at 1500 feet AGL
broken clouds at 8000 feet AGL
Weather: HZ  (haze)

METAR text: VOCI 201600Z 00000KT 4000 HZ FEW015 BKN080 24/18 Q1013 NOSIG
Conditions at: VOCI (COCHIN INTL , IN) observed 1600 UTC 20 January 2019
Temperature: 24.0°C (75°F)
Dewpoint: 18.0°C (64°F) [RH = 69%]
Pressure (altimeter): 29.91 inches Hg (1013.0 mb)
Winds: calm
Visibility: 2.49 miles (4.01 km)
Ceiling: 8000 feet AGL
Clouds: few clouds at 1500 feet AGL
broken clouds at 8000 feet AGL
Weather: HZ  (haze)

METAR text: VOCI 201530Z 00000KT 4000 HZ FEW015 BKN080 24/16 Q1013 NOSIG
Conditions at: VOCI (COCHIN INTL , IN) observed 1530 UTC 20 January 2019
Temperature: 24.0°C (75°F)
Dewpoint: 16.0°C (61°F) [RH = 61%]
Pressure (altimeter): 29.91 inches Hg (1013.0 mb)
Winds: calm
Visibility: 2.49 miles (4.01 km)
Ceiling: 8000 feet AGL
Clouds: few clouds at 1500 feet AGL
broken clouds at 8000 feet AGL
Weather: HZ  (haze)

METAR text: VOCI 201500Z 33002KT 4000 HZ FEW015 BKN080 25/16 Q1013 NOSIG
Conditions at: VOCI (COCHIN INTL , IN) observed 1500 UTC 20 January 2019
Temperature: 25.0°C (77°F)
Dewpoint: 16.0°C (61°F) [RH = 57%]
Pressure (altimeter): 29.91 inches Hg (1013.0 mb)
Winds: from the NNW (330 degrees) at 2 MPH (2 knots; 1.0 m/s)
Visibility: 2.49 miles (4.01 km)
Ceiling: 8000 feet AGL
Clouds: few clouds at 1500 feet AGL
broken clouds at 8000 feet AGL
Weather: HZ  (haze)

METAR text: VOCI 201430Z 09003KT 4000 HZ FEW015 BKN080 25/20 Q1012 NOSIG
Conditions at: VOCI (COCHIN INTL , IN) observed 1430 UTC 20 January 2019
Temperature: 25.0°C (77°F)
Dewpoint: 20.0°C (68°F) [RH = 74%]
Pressure (altimeter): 29.88 inches Hg (1012.0 mb)
Winds: from the E (90 degrees) at 3 MPH (3 knots; 1.5 m/s)
Visibility: 2.49 miles (4.01 km)
Ceiling: 8000 feet AGL
Clouds: few clouds at 1500 feet AGL
broken clouds at 8000 feet AGL
Weather: HZ  (haze)

METAR text: VOCI 201400Z 24003KT 4000 HZ FEW015 BKN080 27/16 Q1012 NOSIG
Conditions at: VOCI (COCHIN INTL , IN) observed 1400 UTC 20 January 2019
Temperature: 27.0°C (81°F)
Dewpoint: 16.0°C (61°F) [RH = 51%]
Pressure (altimeter): 29.88 inches Hg (1012.0 mb)
Winds: from the WSW (240 degrees) at 3 MPH (3 knots; 1.5 m/s)
Visibility: 2.49 miles (4.01 km)
Ceiling: 8000 feet AGL
Clouds: few clouds at 1500 feet AGL
broken clouds at 8000 feet AGL
Weather: HZ  (haze)

METAR text: VOCI 201330Z 27005KT 4000 HZ FEW015 BKN080 28/15 Q1011 NOSIG
Conditions at: VOCI (COCHIN INTL , IN) observed 1330 UTC 20 January 2019
Temperature: 28.0°C (82°F)
Dewpoint: 15.0°C (59°F) [RH = 45%]
Pressure (altimeter): 29.85 inches Hg (1011.0 mb)
Winds: from the W (270 degrees) at 6 MPH (5 knots; 2.6 m/s)
Visibility: 2.49 miles (4.01 km)
Ceiling: 8000 feet AGL
Clouds: few clouds at 1500 feet AGL
broken clouds at 8000 feet AGL
Weather: HZ  (haze)

METAR text: VOCI 201300Z 24005KT 4000 HZ BKN090 29/15 Q1011 NOSIG
Conditions at: VOCI (COCHIN INTL , IN) observed 1300 UTC 20 January 2019
Temperature: 29.0°C (84°F)
Dewpoint: 15.0°C (59°F) [RH = 43%]
Pressure (altimeter): 29.85 inches Hg (1011.0 mb)
Winds: from the WSW (240 degrees) at 6 MPH (5 knots; 2.6 m/s)
Visibility: 2.49 miles (4.01 km)
Ceiling: 9000 feet AGL
Clouds: broken clouds at 9000 feet AGL
Weather: HZ  (haze)

METAR text: VOCI 201230Z 24003KT 5000 HZ BKN090 30/14 Q1010 BECMG 4000 HZ
Conditions at: VOCI (COCHIN INTL , IN) observed 1230 UTC 20 January 2019
Temperature: 30.0°C (86°F)
Dewpoint: 14.0°C (57°F) [RH = 38%]
Pressure (altimeter): 29.82 inches Hg (1010.0 mb)
Winds: from the WSW (240 degrees) at 3 MPH (3 knots; 1.5 m/s)
Visibility: 3 miles ( 5 km)
Ceiling: 9000 feet AGL
Clouds: broken clouds at 9000 feet AGL
Weather: HZ  (haze)

METAR text: VOCI 201200Z 05005KT 5000 HZ BKN090 31/12 Q1010 NOSIG
Conditions at: VOCI (COCHIN INTL , IN) observed 1200 UTC 20 January 2019
Temperature: 31.0°C (88°F)
Dewpoint: 12.0°C (54°F) [RH = 31%]
Pressure (altimeter): 29.82 inches Hg (1010.0 mb)
Winds: from the NE (50 degrees) at 6 MPH (5 knots; 2.6 m/s)
Visibility: 3 miles ( 5 km)
Ceiling: 9000 feet AGL
Clouds: broken clouds at 9000 feet AGL
Weather: HZ  (haze)

METAR text: VOCI 201130Z VRB03KT 5000 HZ BKN090 32/15 Q1010 NOSIG
Conditions at: VOCI (COCHIN INTL , IN) observed 1130 UTC 20 January 2019
Temperature: 32.0°C (90°F)
Dewpoint: 15.0°C (59°F) [RH = 36%]
Pressure (altimeter): 29.82 inches Hg (1010.0 mb)
Winds: variable direction winds at 3 MPH (3 knots; 1.5 m/s)
Visibility: 3 miles ( 5 km)
Ceiling: 9000 feet AGL
Clouds: broken clouds at 9000 feet AGL
Weather: HZ  (haze)

METAR text: VOCI 201100Z VRB03KT 5000 HZ BKN090 32/15 Q1010 NOSIG
Conditions at: VOCI (COCHIN INTL , IN) observed 1100 UTC 20 January 2019
Temperature: 32.0°C (90°F)
Dewpoint: 15.0°C (59°F) [RH = 36%]
Pressure (altimeter): 29.82 inches Hg (1010.0 mb)
Winds: variable direction winds at 3 MPH (3 knots; 1.5 m/s)
Visibility: 3 miles ( 5 km)
Ceiling: 9000 feet AGL
Clouds: broken clouds at 9000 feet AGL
Weather: HZ  (haze)

METAR text: VOCI 201030Z VRB03KT 5000 HZ BKN090 32/15 Q1010 NOSIG
Conditions at: VOCI (COCHIN INTL , IN) observed 1030 UTC 20 January 2019
Temperature: 32.0°C (90°F)
Dewpoint: 15.0°C (59°F) [RH = 36%]
Pressure (altimeter): 29.82 inches Hg (1010.0 mb)
Winds: variable direction winds at 3 MPH (3 knots; 1.5 m/s)
Visibility: 3 miles ( 5 km)
Ceiling: 9000 feet AGL
Clouds: broken clouds at 9000 feet AGL
Weather: HZ  (haze)

METAR text: VOCI 201000Z VRB03KT 5000 HZ BKN090 32/16 Q1010 NOSIG
Conditions at: VOCI (COCHIN INTL , IN) observed 1000 UTC 20 January 2019
Temperature: 32.0°C (90°F)
Dewpoint: 16.0°C (61°F) [RH = 38%]
Pressure (altimeter): 29.82 inches Hg (1010.0 mb)
Winds: variable direction winds at 3 MPH (3 knots; 1.5 m/s)
Visibility: 3 miles ( 5 km)
Ceiling: 9000 feet AGL
Clouds: broken clouds at 9000 feet AGL
Weather: HZ  (haze)

METAR text: VOCI 200930Z VRB03KT 5000 HZ BKN090 32/16 Q1010 NOSIG
Conditions at: VOCI (COCHIN INTL , IN) observed 0930 UTC 20 January 2019
Temperature: 32.0°C (90°F)
Dewpoint: 16.0°C (61°F) [RH = 38%]
Pressure (altimeter): 29.82 inches Hg (1010.0 mb)
Winds: variable direction winds at 3 MPH (3 knots; 1.5 m/s)
Visibility: 3 miles ( 5 km)
Ceiling: 9000 feet AGL
Clouds: broken clouds at 9000 feet AGL
Weather: HZ  (haze)

METAR text: VOCI 200900Z VRB03KT 5000 HZ BKN090 32/15 Q1011 NOSIG
Conditions at: VOCI (COCHIN INTL , IN) observed 0900 UTC 20 January 2019
Temperature: 32.0°C (90°F)
Dewpoint: 15.0°C (59°F) [RH = 36%]
Pressure (altimeter): 29.85 inches Hg (1011.0 mb)
Winds: variable direction winds at 3 MPH (3 knots; 1.5 m/s)
Visibility: 3 miles ( 5 km)
Ceiling: 9000 feet AGL
Clouds: broken clouds at 9000 feet AGL
Weather: HZ  (haze)

METAR text: VOCI 200830Z VRB03KT 5000 HZ BKN090 31/15 Q1011 NOSIG
Conditions at: VOCI (COCHIN INTL , IN) observed 0830 UTC 20 January 2019
Temperature: 31.0°C (88°F)
Dewpoint: 15.0°C (59°F) [RH = 38%]
Pressure (altimeter): 29.85 inches Hg (1011.0 mb)
Winds: variable direction winds at 3 MPH (3 knots; 1.5 m/s)
Visibility: 3 miles ( 5 km)
Ceiling: 9000 feet AGL
Clouds: broken clouds at 9000 feet AGL
Weather: HZ  (haze)

METAR text: VOCI 200800Z 12005KT 5000 HZ BKN090 30/15 Q1012 NOSIG
Conditions at: VOCI (COCHIN INTL , IN) observed 0800 UTC 20 January 2019
Temperature: 30.0°C (86°F)
Dewpoint: 15.0°C (59°F) [RH = 40%]
Pressure (altimeter): 29.88 inches Hg (1012.0 mb)
Winds: from the ESE (120 degrees) at 6 MPH (5 knots; 2.6 m/s)
Visibility: 3 miles ( 5 km)
Ceiling: 9000 feet AGL
Clouds: broken clouds at 9000 feet AGL
Weather: HZ  (haze)

METAR text: VOCI 200730Z VRB03KT 5000 HZ BKN090 30/15 Q1012 NOSIG
Conditions at: VOCI (COCHIN INTL , IN) observed 0730 UTC 20 January 2019
Temperature: 30.0°C (86°F)
Dewpoint: 15.0°C (59°F) [RH = 40%]
Pressure (altimeter): 29.88 inches Hg (1012.0 mb)
Winds: variable direction winds at 3 MPH (3 knots; 1.5 m/s)
Visibility: 3 miles ( 5 km)
Ceiling: 9000 feet AGL
Clouds: broken clouds at 9000 feet AGL
Weather: HZ  (haze)

METAR text: VOCI 200700Z 09003KT 5000 HZ BKN090 29/16 Q1013 NOSIG
Conditions at: VOCI (COCHIN INTL , IN) observed 0700 UTC 20 January 2019
Temperature: 29.0°C (84°F)
Dewpoint: 16.0°C (61°F) [RH = 45%]
Pressure (altimeter): 29.91 inches Hg (1013.0 mb)
Winds: from the E (90 degrees) at 3 MPH (3 knots; 1.5 m/s)
Visibility: 3 miles ( 5 km)
Ceiling: 9000 feet AGL
Clouds: broken clouds at 9000 feet AGL
Weather: HZ  (haze)

METAR text: VOCI 200630Z VRB03KT 5000 HZ BKN090 29/17 Q1014 NOSIG
Conditions at: VOCI (COCHIN INTL , IN) observed 0630 UTC 20 January 2019
Temperature: 29.0°C (84°F)
Dewpoint: 17.0°C (63°F) [RH = 48%]
Pressure (altimeter): 29.94 inches Hg (1014.0 mb)
Winds: variable direction winds at 3 MPH (3 knots; 1.5 m/s)
Visibility: 3 miles ( 5 km)
Ceiling: 9000 feet AGL
Clouds: broken clouds at 9000 feet AGL
Weather: HZ  (haze)

METAR text: VOCI 200600Z 11004KT 4000 HZ BKN090 28/17 Q1014 BECMG 5000 HZ
Conditions at: VOCI (COCHIN INTL , IN) observed 0600 UTC 20 January 2019
Temperature: 28.0°C (82°F)
Dewpoint: 17.0°C (63°F) [RH = 51%]
Pressure (altimeter): 29.94 inches Hg (1014.0 mb)
Winds: from the ESE (110 degrees) at 5 MPH (4 knots; 2.1 m/s)
Visibility: 2.49 miles (4.01 km)
Ceiling: 9000 feet AGL
Clouds: broken clouds at 9000 feet AGL
Weather: HZ  (haze)

METAR text: VOCI 200530Z 12003KT 4000 HZ BKN090 27/16 Q1015 NOSIG
Conditions at: VOCI (COCHIN INTL , IN) observed 0530 UTC 20 January 2019
Temperature: 27.0°C (81°F)
Dewpoint: 16.0°C (61°F) [RH = 51%]
Pressure (altimeter): 29.97 inches Hg (1015.0 mb)
Winds: from the ESE (120 degrees) at 3 MPH (3 knots; 1.5 m/s)
Visibility: 2.49 miles (4.01 km)
Ceiling: 9000 feet AGL
Clouds: broken clouds at 9000 feet AGL
Weather: HZ  (haze)

METAR text: VOCI 200500Z 10003KT 4000 HZ BKN090 26/18 Q1015 NOSIG
Conditions at: VOCI (COCHIN INTL , IN) observed 0500 UTC 20 January 2019
Temperature: 26.0°C (79°F)
Dewpoint: 18.0°C (64°F) [RH = 61%]
Pressure (altimeter): 29.97 inches Hg (1015.0 mb)
Winds: from the E (100 degrees) at 3 MPH (3 knots; 1.5 m/s)
Visibility: 2.49 miles (4.01 km)
Ceiling: 9000 feet AGL
Clouds: broken clouds at 9000 feet AGL
Weather: HZ  (haze)

METAR text: VOCI 200430Z 07005KT 4000 BR BKN090 24/18 Q1015 NOSIG
Conditions at: VOCI (COCHIN INTL , IN) observed 0430 UTC 20 January 2019
Temperature: 24.0°C (75°F)
Dewpoint: 18.0°C (64°F) [RH = 69%]
Pressure (altimeter): 29.97 inches Hg (1015.0 mb)
Winds: from the ENE (70 degrees) at 6 MPH (5 knots; 2.6 m/s)
Visibility: 2.49 miles (4.01 km)
Ceiling: 9000 feet AGL
Clouds: broken clouds at 9000 feet AGL
Weather: BR  (mist)

METAR text: VOCI 200400Z 10004KT 4000 BR BKN090 24/17 Q1015 NOSIG
Conditions at: VOCI (COCHIN INTL , IN) observed 0400 UTC 20 January 2019
Temperature: 24.0°C (75°F)
Dewpoint: 17.0°C (63°F) [RH = 65%]
Pressure (altimeter): 29.97 inches Hg (1015.0 mb)
Winds: from the E (100 degrees) at 5 MPH (4 knots; 2.1 m/s)
Visibility: 2.49 miles (4.01 km)
Ceiling: 9000 feet AGL
Clouds: broken clouds at 9000 feet AGL
Weather: BR  (mist)

METAR text: VOCI 200330Z 11002KT 4000 BR BKN090 23/17 Q1015 NOSIG
Conditions at: VOCI (COCHIN INTL , IN) observed 0330 UTC 20 January 2019
Temperature: 23.0°C (73°F)
Dewpoint: 17.0°C (63°F) [RH = 69%]
Pressure (altimeter): 29.97 inches Hg (1015.0 mb)
Winds: from the ESE (110 degrees) at 2 MPH (2 knots; 1.0 m/s)
Visibility: 2.49 miles (4.01 km)
Ceiling: 9000 feet AGL
Clouds: broken clouds at 9000 feet AGL
Weather: BR  (mist)

METAR text: VOCI 200300Z 12003KT 4000 BR BKN090 21/18 Q1015 NOSIG
Conditions at: VOCI (COCHIN INTL , IN) observed 0300 UTC 20 January 2019
Temperature: 21.0°C (70°F)
Dewpoint: 18.0°C (64°F) [RH = 83%]
Pressure (altimeter): 29.97 inches Hg (1015.0 mb)
Winds: from the ESE (120 degrees) at 3 MPH (3 knots; 1.5 m/s)
Visibility: 2.49 miles (4.01 km)
Ceiling: 9000 feet AGL
Clouds: broken clouds at 9000 feet AGL
Weather: BR  (mist)

METAR text: VOCI 200230Z 10004KT 3000 BR FEW090 21/17 Q1014 BECMG 4000 HZ
Conditions at: VOCI (COCHIN INTL , IN) observed 0230 UTC 20 January 2019
Temperature: 21.0°C (70°F)
Dewpoint: 17.0°C (63°F) [RH = 78%]
Pressure (altimeter): 29.94 inches Hg (1014.0 mb)
Winds: from the E (100 degrees) at 5 MPH (4 knots; 2.1 m/s)
Visibility: 1.86 miles (2.99 km)
Ceiling: at least 12,000 feet AGL
Clouds: few clouds at 9000 feet AGL
Weather: BR  (mist)

METAR text: VOCI 200200Z 09003KT 2500 BR FEW090 20/18 Q1014 BECMG 3000 BR
Conditions at: VOCI (COCHIN INTL , IN) observed 0200 UTC 20 January 2019
Temperature: 20.0°C (68°F)
Dewpoint: 18.0°C (64°F) [RH = 88%]
Pressure (altimeter): 29.94 inches Hg (1014.0 mb)
Winds: from the E (90 degrees) at 3 MPH (3 knots; 1.5 m/s)
Visibility: 1.55 miles (2.49 km)
Ceiling: at least 12,000 feet AGL
Clouds: few clouds at 9000 feet AGL
Weather: BR  (mist)

METAR text: VOCI 200130Z 09003KT 2500 BR FEW090 20/18 Q1014 NOSIG
Conditions at: VOCI (COCHIN INTL , IN) observed 0130 UTC 20 January 2019
Temperature: 20.0°C (68°F)
Dewpoint: 18.0°C (64°F) [RH = 88%]
Pressure (altimeter): 29.94 inches Hg (1014.0 mb)
Winds: from the E (90 degrees) at 3 MPH (3 knots; 1.5 m/s)
Visibility: 1.55 miles (2.49 km)
Ceiling: at least 12,000 feet AGL
Clouds: few clouds at 9000 feet AGL
Weather: BR  (mist)

METAR text: VOCI 200100Z 00000KT 2500 BR NSC 20/19 Q1013 TEMPO 2000 BR
Conditions at: VOCI (COCHIN INTL , IN) observed 0100 UTC 20 January 2019
Temperature: 20.0°C (68°F)
Dewpoint: 19.0°C (66°F) [RH = 94%]
Pressure (altimeter): 29.91 inches Hg (1013.0 mb)
Winds: calm
Visibility: 1.55 miles (2.49 km)
Ceiling: at least 12,000 feet AGL
Clouds: sky clear below 12,000 feet AGL
Weather: BR  (mist)

METAR text: VOCI 200030Z 00000KT 3500 BR NSC 20/19 Q1013 TEMPO 2000 BR
Conditions at: VOCI (COCHIN INTL , IN) observed 0030 UTC 20 January 2019
Temperature: 20.0°C (68°F)
Dewpoint: 19.0°C (66°F) [RH = 94%]
Pressure (altimeter): 29.91 inches Hg (1013.0 mb)
Winds: calm
Visibility: 2.17 miles (3.49 km)
Ceiling: at least 12,000 feet AGL
Clouds: sky clear below 12,000 feet AGL
Weather: BR  (mist)

METAR text: VOCI 200000Z 00000KT 3500 BR NSC 20/19 Q1013 NOSIG
Conditions at: VOCI (COCHIN INTL , IN) observed 0000 UTC 20 January 2019
Temperature: 20.0°C (68°F)
Dewpoint: 19.0°C (66°F) [RH = 94%]
Pressure (altimeter): 29.91 inches Hg (1013.0 mb)
Winds: calm
Visibility: 2.17 miles (3.49 km)
Ceiling: at least 12,000 feet AGL
Clouds: sky clear below 12,000 feet AGL
Weather: BR  (mist)

METAR text: VOCI 192330Z 00000KT 3500 BR NSC 21/19 Q1013 NOSIG
Conditions at: VOCI (COCHIN INTL , IN) observed 2330 UTC 19 January 2019
Temperature: 21.0°C (70°F)
Dewpoint: 19.0°C (66°F) [RH = 88%]
Pressure (altimeter): 29.91 inches Hg (1013.0 mb)
Winds: calm
Visibility: 2.17 miles (3.49 km)
Ceiling: at least 12,000 feet AGL
Clouds: sky clear below 12,000 feet AGL
Weather: BR  (mist)

METAR text: VOCI 192300Z 00000KT 3500 BR NSC 21/19 Q1012 NOSIG
Conditions at: VOCI (COCHIN INTL , IN) observed 2300 UTC 19 January 2019
Temperature: 21.0°C (70°F)
Dewpoint: 19.0°C (66°F) [RH = 88%]
Pressure (altimeter): 29.88 inches Hg (1012.0 mb)
Winds: calm
Visibility: 2.17 miles (3.49 km)
Ceiling: at least 12,000 feet AGL
Clouds: sky clear below 12,000 feet AGL
Weather: BR  (mist)

METAR text: VOCI 192230Z 00000KT 3500 BR NSC 21/19 Q1012 NOSIG
Conditions at: VOCI (COCHIN INTL , IN) observed 2230 UTC 19 January 2019
Temperature: 21.0°C (70°F)
Dewpoint: 19.0°C (66°F) [RH = 88%]
Pressure (altimeter): 29.88 inches Hg (1012.0 mb)
Winds: calm
Visibility: 2.17 miles (3.49 km)
Ceiling: at least 12,000 feet AGL
Clouds: sky clear below 12,000 feet AGL
Weather: BR  (mist)

METAR text: VOCI 192200Z 00000KT 3500 BR NSC 22/15 Q1012 NOSIG
Conditions at: VOCI (COCHIN INTL , IN) observed 2200 UTC 19 January 2019
Temperature: 22.0°C (72°F)
Dewpoint: 15.0°C (59°F) [RH = 65%]
Pressure (altimeter): 29.88 inches Hg (1012.0 mb)
Winds: calm
Visibility: 2.17 miles (3.49 km)
Ceiling: at least 12,000 feet AGL
Clouds: sky clear below 12,000 feet AGL
Weather: BR  (mist)

METAR text: VOCI 192130Z 00000KT 3500 BR NSC 22/16 Q1012 NOSIG
Conditions at: VOCI (COCHIN INTL , IN) observed 2130 UTC 19 January 2019
Temperature: 22.0°C (72°F)
Dewpoint: 16.0°C (61°F) [RH = 69%]
Pressure (altimeter): 29.88 inches Hg (1012.0 mb)
Winds: calm
Visibility: 2.17 miles (3.49 km)
Ceiling: at least 12,000 feet AGL
Clouds: sky clear below 12,000 feet AGL
Weather: BR  (mist)

METAR text: VOCI 192100Z 00000KT 3500 BR NSC 22/20 Q1012 NOSIG
Conditions at: VOCI (COCHIN INTL , IN) observed 2100 UTC 19 January 2019
Temperature: 22.0°C (72°F)
Dewpoint: 20.0°C (68°F) [RH = 88%]
Pressure (altimeter): 29.88 inches Hg (1012.0 mb)
Winds: calm
Visibility: 2.17 miles (3.49 km)
Ceiling: at least 12,000 feet AGL
Clouds: sky clear below 12,000 feet AGL
Weather: BR  (mist)

METAR text: VOCI 192030Z 00000KT 3500 BR NSC 22/20 Q1013 NOSIG
Conditions at: VOCI (COCHIN INTL , IN) observed 2030 UTC 19 January 2019
Temperature: 22.0°C (72°F)
Dewpoint: 20.0°C (68°F) [RH = 88%]
Pressure (altimeter): 29.91 inches Hg (1013.0 mb)
Winds: calm
Visibility: 2.17 miles (3.49 km)
Ceiling: at least 12,000 feet AGL
Clouds: sky clear below 12,000 feet AGL
Weather: BR  (mist)

METAR text: VOCI 192000Z 00000KT 3500 BR NSC 22/20 Q1013 NOSIG
Conditions at: VOCI (COCHIN INTL , IN) observed 2000 UTC 19 January 2019
Temperature: 22.0°C (72°F)
Dewpoint: 20.0°C (68°F) [RH = 88%]
Pressure (altimeter): 29.91 inches Hg (1013.0 mb)
Winds: calm
Visibility: 2.17 miles (3.49 km)
Ceiling: at least 12,000 feet AGL
Clouds: sky clear below 12,000 feet AGL
Weather: BR  (mist)

METAR text: VOCI 191930Z 11003KT 3000 BR NSC 23/20 Q1013
Conditions at: VOCI (COCHIN INTL , IN) observed 1930 UTC 19 January 2019
Temperature: 23.0°C (73°F)
Dewpoint: 20.0°C (68°F) [RH = 83%]
Pressure (altimeter): 29.91 inches Hg (1013.0 mb)
Winds: from the ESE (110 degrees) at 3 MPH (3 knots; 1.5 m/s)
Visibility: 1.86 miles (2.99 km)
Ceiling: at least 12,000 feet AGL
Clouds: sky clear below 12,000 feet AGL
Weather: BR  (mist)

METAR text: VOCI 191900Z 06003KT 3000 BR NSC 23/21 Q1014
Conditions at: VOCI (COCHIN INTL , IN) observed 1900 UTC 19 January 2019
Temperature: 23.0°C (73°F)
Dewpoint: 21.0°C (70°F) [RH = 89%]
Pressure (altimeter): 29.94 inches Hg (1014.0 mb)
Winds: from the ENE (60 degrees) at 3 MPH (3 knots; 1.5 m/s)
Visibility: 1.86 miles (2.99 km)
Ceiling: at least 12,000 feet AGL
Clouds: sky clear below 12,000 feet AGL
Weather: BR  (mist)

METAR text: VOCI 191830Z 00000KT 3000 BR NSC 23/21 Q1014 TEMPO 2000 BR
Conditions at: VOCI (COCHIN INTL , IN) observed 1830 UTC 19 January 2019
Temperature: 23.0°C (73°F)
Dewpoint: 21.0°C (70°F) [RH = 89%]
Pressure (altimeter): 29.94 inches Hg (1014.0 mb)
Winds: calm
Visibility: 1.86 miles (2.99 km)
Ceiling: at least 12,000 feet AGL
Clouds: sky clear below 12,000 feet AGL
Weather: BR  (mist)

METAR text: VOCI 191800Z 00000KT 3500 BR NSC 23/21 Q1014 NOSIG
Conditions at: VOCI (COCHIN INTL , IN) observed 1800 UTC 19 January 2019
Temperature: 23.0°C (73°F)
Dewpoint: 21.0°C (70°F) [RH = 89%]
Pressure (altimeter): 29.94 inches Hg (1014.0 mb)
Winds: calm
Visibility: 2.17 miles (3.49 km)
Ceiling: at least 12,000 feet AGL
Clouds: sky clear below 12,000 feet AGL
Weather: BR  (mist)

METAR text: VOCI 191730Z 00000KT 4000 BR NSC 24/21 Q1014 NOSIG
Conditions at: VOCI (COCHIN INTL , IN) observed 1730 UTC 19 January 2019
Temperature: 24.0°C (75°F)
Dewpoint: 21.0°C (70°F) [RH = 83%]
Pressure (altimeter): 29.94 inches Hg (1014.0 mb)
Winds: calm
Visibility: 2.49 miles (4.01 km)
Ceiling: at least 12,000 feet AGL
Clouds: sky clear below 12,000 feet AGL
Weather: BR  (mist)

METAR text: VOCI 191700Z 00000KT 4000 HZ NSC 24/21 Q1014 NOSIG
Conditions at: VOCI (COCHIN INTL , IN) observed 1700 UTC 19 January 2019
Temperature: 24.0°C (75°F)
Dewpoint: 21.0°C (70°F) [RH = 83%]
Pressure (altimeter): 29.94 inches Hg (1014.0 mb)
Winds: calm
Visibility: 2.49 miles (4.01 km)
Ceiling: at least 12,000 feet AGL
Clouds: sky clear below 12,000 feet AGL
Weather: HZ  (haze)

METAR text: VOCI 191630Z 00000KT 4000 HZ NSC 23/21 Q1014 NOSIG
Conditions at: VOCI (COCHIN INTL , IN) observed 1630 UTC 19 January 2019
Temperature: 23.0°C (73°F)
Dewpoint: 21.0°C (70°F) [RH = 89%]
Pressure (altimeter): 29.94 inches Hg (1014.0 mb)
Winds: calm
Visibility: 2.49 miles (4.01 km)
Ceiling: at least 12,000 feet AGL
Clouds: sky clear below 12,000 feet AGL
Weather: HZ  (haze)

METAR text: VOCI 191600Z 00000KT 4000 HZ FEW090 24/21 Q1013 NOSIG
Conditions at: VOCI (COCHIN INTL , IN) observed 1600 UTC 19 January 2019
Temperature: 24.0°C (75°F)
Dewpoint: 21.0°C (70°F) [RH = 83%]
Pressure (altimeter): 29.91 inches Hg (1013.0 mb)
Winds: calm
Visibility: 2.49 miles (4.01 km)
Ceiling: at least 12,000 feet AGL
Clouds: few clouds at 9000 feet AGL
Weather: HZ  (haze)

METAR text: VOCI 191530Z 00000KT 4000 HZ SCT090 25/21 Q1013 NOSIG
Conditions at: VOCI (COCHIN INTL , IN) observed 1530 UTC 19 January 2019
Temperature: 25.0°C (77°F)
Dewpoint: 21.0°C (70°F) [RH = 79%]
Pressure (altimeter): 29.91 inches Hg (1013.0 mb)
Winds: calm
Visibility: 2.49 miles (4.01 km)
Ceiling: at least 12,000 feet AGL
Clouds: scattered clouds at 9000 feet AGL
Weather: HZ  (haze)

METAR text: VOCI 191500Z 00000KT 4000 HZ SCT090 25/21 Q1012 NOSIG
Conditions at: VOCI (COCHIN INTL , IN) observed 1500 UTC 19 January 2019
Temperature: 25.0°C (77°F)
Dewpoint: 21.0°C (70°F) [RH = 79%]
Pressure (altimeter): 29.88 inches Hg (1012.0 mb)
Winds: calm
Visibility: 2.49 miles (4.01 km)
Ceiling: at least 12,000 feet AGL
Clouds: scattered clouds at 9000 feet AGL
Weather: HZ  (haze)

METAR text: VOCI 191430Z 28002KT 5000 HZ SCT090 26/21 Q1012 BECMG 4000 HZ
Conditions at: VOCI (COCHIN INTL , IN) observed 1430 UTC 19 January 2019
Temperature: 26.0°C (79°F)
Dewpoint: 21.0°C (70°F) [RH = 74%]
Pressure (altimeter): 29.88 inches Hg (1012.0 mb)
Winds: from the W (280 degrees) at 2 MPH (2 knots; 1.0 m/s)
Visibility: 3 miles ( 5 km)
Ceiling: at least 12,000 feet AGL
Clouds: scattered clouds at 9000 feet AGL
Weather: HZ  (haze)

METAR text: VOCI 191400Z 28002KT 5000 HZ SCT090 27/20 Q1011 NOSIG
Conditions at: VOCI (COCHIN INTL , IN) observed 1400 UTC 19 January 2019
Temperature: 27.0°C (81°F)
Dewpoint: 20.0°C (68°F) [RH = 66%]
Pressure (altimeter): 29.85 inches Hg (1011.0 mb)
Winds: from the W (280 degrees) at 2 MPH (2 knots; 1.0 m/s)
Visibility: 3 miles ( 5 km)
Ceiling: at least 12,000 feet AGL
Clouds: scattered clouds at 9000 feet AGL
Weather: HZ  (haze)

METAR text: VOCI 191330Z 27002KT 5000 HZ SCT090 27/20 Q1011 NOSIG
Conditions at: VOCI (COCHIN INTL , IN) observed 1330 UTC 19 January 2019
Temperature: 27.0°C (81°F)
Dewpoint: 20.0°C (68°F) [RH = 66%]
Pressure (altimeter): 29.85 inches Hg (1011.0 mb)
Winds: from the W (270 degrees) at 2 MPH (2 knots; 1.0 m/s)
Visibility: 3 miles ( 5 km)
Ceiling: at least 12,000 feet AGL
Clouds: scattered clouds at 9000 feet AGL
Weather: HZ  (haze)

METAR text: VOCI 191300Z 25003KT 5000 HZ SCT090 28/20 Q1010 NOSIG
Conditions at: VOCI (COCHIN INTL , IN) observed 1300 UTC 19 January 2019
Temperature: 28.0°C (82°F)
Dewpoint: 20.0°C (68°F) [RH = 62%]
Pressure (altimeter): 29.82 inches Hg (1010.0 mb)
Winds: from the WSW (250 degrees) at 3 MPH (3 knots; 1.5 m/s)
Visibility: 3 miles ( 5 km)
Ceiling: at least 12,000 feet AGL
Clouds: scattered clouds at 9000 feet AGL
Weather: HZ  (haze)

METAR text: VOCI 191230Z 26009KT 5000 HZ NSC 29/16 Q1010 NOSIG
Conditions at: VOCI (COCHIN INTL , IN) observed 1230 UTC 19 January 2019
Temperature: 29.0°C (84°F)
Dewpoint: 16.0°C (61°F) [RH = 45%]
Pressure (altimeter): 29.82 inches Hg (1010.0 mb)
Winds: from the W (260 degrees) at 10 MPH (9 knots; 4.6 m/s)
Visibility: 3 miles ( 5 km)
Ceiling: at least 12,000 feet AGL
Clouds: sky clear below 12,000 feet AGL
Weather: HZ  (haze)

METAR text: VOCI 191200Z 28011KT 6000 NSC 30/15 Q1010 BECMG 5000 HZ
Conditions at: VOCI (COCHIN INTL , IN) observed 1200 UTC 19 January 2019
Temperature: 30.0°C (86°F)
Dewpoint: 15.0°C (59°F) [RH = 40%]
Pressure (altimeter): 29.82 inches Hg (1010.0 mb)
Winds: from the W (280 degrees) at 13 MPH (11 knots; 5.7 m/s)
Visibility: 4 miles ( 6 km)
Ceiling: at least 12,000 feet AGL
Clouds: sky clear below 12,000 feet AGL
Weather: no significant weather observed at this time

Forecast for: VOCI (COCHIN INTL , IN)
Text: TAF VOCI 202300Z 2100/2206 VRB03KT 2500 BR FEW012 BKN080
Forecast period: 0000 to 0300 UTC 21 January 2019
Forecast type: FROM: standard forecast or significant change
Winds: variable direction winds at 3 MPH (3 knots; 1.5 m/s)
Visibility: 1.55 miles (2.49 km)
Ceiling: 8000 feet AGL
Clouds: few clouds at 1200 feet AGL
broken clouds at 8000 feet AGL
Weather: BR  (mist)
Text: BECMG 2103/2105 09005KT 5000 HZ FEW015 SCT080
Forecast period: 0300 to 1200 UTC 21 January 2019
Forecast type: BECOMING: Conditions expected to become as follows by 0500 UTC 21 January 2019
Winds: from the E (90 degrees) at 6 MPH (5 knots; 2.6 m/s)
Visibility: 3 miles (5 km)
Ceiling: at least 12,000 feet AGL
Clouds: few clouds at 1500 feet AGL
scattered clouds at 8000 feet AGL
Weather: HZ  (haze)
Text: BECMG 2112/2113 27005KT 4000 HZ
Forecast period: 1200 to 1600 UTC 21 January 2019
Forecast type: BECOMING: Conditions expected to become as follows by 1300 UTC 21 January 2019
Winds: from the W (270 degrees) at 6 MPH (5 knots; 2.6 m/s)
Visibility: 2.49 miles (4.01 km)
Ceiling: at least 12,000 feet AGL
Clouds: few clouds at 1500 feet AGL
scattered clouds at 8000 feet AGL
Weather: HZ  (haze)
Text: BECMG 2116/2117 VRB03KT SCT015 SCT080
Forecast period: 1600 UTC 21 January 2019 to 0300 UTC 22 January 2019
Forecast type: BECOMING: Conditions expected to become as follows by 1700 UTC 21 January 2019
Winds: variable direction winds at 3 MPH (3 knots; 1.5 m/s)
Visibility: 2.49 miles (4.01 km)
Ceiling: at least 12,000 feet AGL
Clouds: scattered clouds at 1500 feet AGL
scattered clouds at 8000 feet AGL
Weather: HZ  (haze)
Text: TEMPO 2122/2203 2500 BR
Forecast period: 2200 UTC 21 January 2019 to 0300 UTC 22 January 2019
Forecast type: TEMPORARY: The following changes expected for less than half the time period
Visibility: 1.55 miles (2.49 km)
Ceiling: unknown
Clouds: missing
Weather: BR  (mist)
Text: BECMG 2203/2204 09005KT 4000 HZ
Forecast period: 0300 to 0600 UTC 22 January 2019
Forecast type: BECOMING: Conditions expected to become as follows by 0400 UTC 22 January 2019
Winds: from the E (90 degrees) at 6 MPH (5 knots; 2.6 m/s)
Visibility: 2.49 miles (4.01 km)
Ceiling: at least 12,000 feet AGL
Clouds: scattered clouds at 1500 feet AGL
scattered clouds at 8000 feet AGL
Weather: HZ  (haze)